Time;durP1;ratioP1;P1;durP2;ratioP2;P2;SDS_P1;SDS_P2;PMS_P1;PMS_P2;Temp;Humidity;BMP_temperature;BMP_pressure;BME280_temperature;BME280_humidity;BME280_pressure;Samples;Min_cycle;Max_cycle;Signal;HPM_P1;HPM_P2
2022/09/22 00:02:04;;;;;;;3.17;2.97;;;;;;;13.42;74.16;99508.50;5111662;28;20273;-52
2022/09/22 00:04:31;;;;;;;3.33;3.03;;;;;;;13.35;74.63;99503.56;5112167;28;20206;-55
2022/09/22 00:06:58;;;;;;;3.67;3.37;;;;;;;13.37;74.42;99505.22;5112050;28;20226;-56
2022/09/22 00:09:27;;;;;;;3.47;3.03;;;;;;;13.36;74.65;99505.28;5112082;28;20290;-56
2022/09/22 00:11:54;;;;;;;3.10;2.80;;;;;;;13.36;74.57;99506.13;5110839;28;20201;-55
2022/09/22 00:14:23;;;;;;;3.50;3.30;;;;;;;13.33;74.57;99505.38;5112170;28;20209;-54
2022/09/22 00:16:52;;;;;;;3.60;3.40;;;;;;;13.31;75.11;99502.00;5111249;28;20201;-54
2022/09/22 00:19:21;;;;;;;3.40;3.20;;;;;;;13.08;75.16;99467.25;5111643;28;20194;-55
2022/09/22 00:21:49;;;;;;;3.50;3.30;;;;;;;13.28;75.36;99504.75;5112218;28;20582;-52
2022/09/22 00:24:17;;;;;;;3.80;3.60;;;;;;;13.27;75.78;99498.66;5111645;28;20194;-52
2022/09/22 00:26:46;;;;;;;3.30;3.10;;;;;;;13.30;75.29;99502.91;5111946;28;20245;-52
2022/09/22 00:29:15;;;;;;;3.40;3.20;;;;;;;13.32;75.36;99495.88;5111694;28;20201;-52
2022/09/22 00:31:43;;;;;;;3.60;3.37;;;;;;;13.29;75.06;99483.81;5111813;27;20693;-51
2022/09/22 00:34:15;;;;;;;3.30;3.10;;;;;;;13.36;74.99;99492.22;5111094;28;20237;-52
2022/09/22 00:36:42;;;;;;;3.20;3.00;;;;;;;13.36;74.95;99494.84;5111674;28;20201;-52
2022/09/22 00:39:09;;;;;;;3.73;2.73;;;;;;;13.31;75.14;99495.03;5111291;28;20202;-52
2022/09/22 00:41:39;;;;;;;3.27;3.07;;;;;;;13.22;75.23;99489.31;5111687;28;20195;-53
2022/09/22 00:44:37;;;;;;;3.10;2.90;;;;;;;13.25;75.51;99504.84;5111312;28;20198;-52
2022/09/22 00:47:15;;;;;;;3.57;2.73;;;;;;;13.25;75.85;99494.44;5111439;28;20271;-55
2022/09/22 00:49:49;;;;;;;2.70;2.60;;;;;;;13.26;75.11;99496.13;5111495;28;20200;-55
2022/09/22 00:52:21;;;;;;;2.93;2.67;;;;;;;13.25;74.92;99500.50;5111135;28;20197;-54
2022/09/22 00:54:49;;;;;;;3.00;2.50;;;;;;;13.17;75.14;99494.75;5111226;28;20198;-52
2022/09/22 00:57:19;;;;;;;3.53;2.63;;;;;;;13.18;75.38;99498.19;5111099;28;20281;-53
2022/09/22 00:59:50;;;;;;;3.03;2.83;;;;;;;13.18;75.32;99495.59;5111124;28;20195;-52
2022/09/22 01:02:18;;;;;;;3.60;3.40;;;;;;;13.09;76.07;99497.59;5111062;28;20236;-54
2022/09/22 01:04:46;;;;;;;4.03;3.73;;;;;;;13.07;76.50;99501.19;5110960;28;20205;-53
2022/09/22 01:07:14;;;;;;;3.93;3.57;;;;;;;13.07;76.91;99495.97;5110927;28;20654;-52
2022/09/22 01:09:40;;;;;;;3.27;3.07;;;;;;;13.05;76.85;99511.66;5110871;28;20241;-52
2022/09/22 01:12:08;;;;;;;3.17;2.97;;;;;;;13.03;77.02;99500.44;5111057;28;20589;-53
2022/09/22 01:14:47;;;;;;;3.80;3.50;;;;;;;12.98;77.11;99499.78;5111051;28;20710;-52
2022/09/22 01:17:26;;;;;;;3.70;3.50;;;;;;;13.00;77.45;99500.56;5110675;28;20205;-52
2022/09/22 01:20:35;;;;;;;3.60;3.30;;;;;;;12.96;77.43;99501.63;5110812;28;20199;-52
2022/09/22 01:23:25;;;;;;;3.77;3.57;;;;;;;12.95;78.16;99497.31;5072888;28;20202;-52
2022/09/22 01:26:19;;;;;;;3.60;3.30;;;;;;;12.98;78.10;99484.13;5110743;28;20194;-54
2022/09/22 01:29:05;;;;;;;4.00;3.80;;;;;;;13.02;78.23;99483.13;5110783;28;20221;-52
2022/09/22 01:31:39;;;;;;;3.80;3.50;;;;;;;12.94;78.91;99479.97;5110608;28;20224;-52
2022/09/22 01:34:13;;;;;;;4.07;3.77;;;;;;;12.90;79.46;99488.81;5110339;28;20239;-53
2022/09/22 01:36:47;;;;;;;4.10;3.80;;;;;;;12.84;80.02;99491.66;5109922;28;20198;-54
2022/09/22 01:39:20;;;;;;;4.00;3.80;;;;;;;12.89;80.41;99500.13;5107307;28;20199;-55
2022/09/22 01:41:53;;;;;;;3.90;3.60;;;;;;;12.85;80.55;99487.31;5109215;28;20195;-56
2022/09/22 01:44:28;;;;;;;4.13;3.87;;;;;;;12.97;80.39;99505.91;5107031;28;20186;-55
2022/09/22 01:47:02;;;;;;;4.20;3.90;;;;;;;12.97;80.24;99503.31;5106252;28;20225;-55
2022/09/22 01:49:33;;;;;;;3.60;3.30;;;;;;;12.95;80.08;99496.47;5108903;28;20205;-53
2022/09/22 01:52:06;;;;;;;3.90;3.60;;;;;;;12.96;79.98;99495.56;5108988;28;20580;-52
2022/09/22 01:54:40;;;;;;;3.80;3.50;;;;;;;12.95;80.23;99493.84;5106829;28;20199;-52
2022/09/22 01:57:20;;;;;;;3.93;3.60;;;;;;;12.85;80.84;99482.09;5110148;28;20195;-52
2022/09/22 01:59:51;;;;;;;3.90;3.60;;;;;;;12.87;80.35;99485.47;5110151;28;20195;-52
2022/09/22 02:02:25;;;;;;;5.20;3.40;;;;;;;12.89;79.68;99486.25;5109931;28;20240;-51
2022/09/22 02:04:56;;;;;;;3.30;3.00;;;;;;;12.86;79.84;99484.63;5110294;28;20198;-52
2022/09/22 02:07:29;;;;;;;3.53;3.23;;;;;;;12.83;79.79;99479.53;5109720;28;20230;-52
2022/09/22 02:09:59;;;;;;;3.60;3.40;;;;;;;12.79;80.37;99483.16;5109957;28;20194;-52
2022/09/22 02:12:26;;;;;;;3.30;3.00;;;;;;;12.81;80.37;99481.34;5110120;28;20194;-51
2022/09/22 02:14:53;;;;;;;3.50;3.20;;;;;;;12.76;80.32;99485.88;5110064;28;20202;-52
2022/09/22 02:17:21;;;;;;;3.47;3.17;;;;;;;12.72;80.47;99484.31;5109845;28;20635;-52
2022/09/22 02:19:49;;;;;;;3.13;2.90;;;;;;;12.65;80.86;99493.25;5110018;28;20191;-52
2022/09/22 02:22:16;;;;;;;3.60;3.30;;;;;;;12.58;81.33;99487.44;5109684;28;20198;-52
2022/09/22 02:24:45;;;;;;;3.10;2.90;;;;;;;12.54;81.86;99484.97;5109738;28;20309;-52
2022/09/22 02:27:15;;;;;;;2.70;2.60;;;;;;;12.61;81.91;99481.25;5109552;28;20226;-53
2022/09/22 02:29:47;;;;;;;3.50;3.30;;;;;;;12.68;81.66;99478.34;5109718;28;20195;-55
2022/09/22 02:32:17;;;;;;;3.63;3.43;;;;;;;12.68;81.74;99478.34;5109641;28;20227;-54
2022/09/22 02:34:46;;;;;;;4.23;3.93;;;;;;;12.66;81.82;99474.97;5109536;28;20233;-54
2022/09/22 02:37:22;;;;;;;5.63;3.63;;;;;;;12.65;82.37;99472.41;5114228;28;20226;-55
2022/09/22 02:39:59;;;;;;;3.73;3.53;;;;;;;12.55;82.65;99468.47;5113879;28;20200;-55
2022/09/22 02:42:29;;;;;;;3.60;3.40;;;;;;;12.36;83.11;99447.47;5113841;28;20200;-56
2022/09/22 02:45:03;;;;;;;3.00;2.80;;;;;;;12.53;83.32;99473.72;5113495;28;20197;-55
2022/09/22 02:47:36;;;;;;;4.20;2.97;;;;;;;12.46;83.71;99469.66;5113639;28;20218;-55
2022/09/22 02:50:09;;;;;;;3.03;2.57;;;;;;;12.42;84.07;99468.06;5113707;28;20285;-55
2022/09/22 02:52:38;;;;;;;2.60;2.40;;;;;;;12.41;84.02;99482.00;5113747;28;20553;-55
2022/09/22 02:55:06;;;;;;;2.50;2.40;;;;;;;12.35;83.78;99462.25;5113475;28;20198;-53
2022/09/22 02:57:33;;;;;;;4.83;2.67;;;;;;;12.42;83.79;99488.03;5113634;28;20201;-52
2022/09/22 03:00:00;;;;;;;3.03;2.83;;;;;;;12.48;84.04;99490.44;5113646;28;20984;-52
2022/09/22 03:02:27;;;;;;;2.80;2.70;;;;;;;12.47;83.80;99489.59;5113423;28;20202;-53
2022/09/22 03:04:54;;;;;;;3.63;3.33;;;;;;;12.49;84.10;99481.72;5113504;28;20680;-54
2022/09/22 03:07:22;;;;;;;3.57;3.27;;;;;;;12.46;84.59;99472.25;5112237;28;20200;-53
2022/09/22 03:09:49;;;;;;;3.60;3.40;;;;;;;12.45;85.04;99478.38;5112331;28;20614;-52
2022/09/22 03:12:16;;;;;;;3.97;3.70;;;;;;;12.46;85.37;99474.00;5112111;28;20205;-51
2022/09/22 03:14:43;;;;;;;4.23;3.47;;;;;;;12.43;85.64;99480.19;5111489;28;20201;-53
2022/09/22 03:17:12;;;;;;;3.40;3.10;;;;;;;12.50;85.41;99478.22;5109011;28;20205;-52
2022/09/22 03:19:39;;;;;;;4.67;3.97;;;;;;;12.53;85.27;99478.06;5111778;28;20195;-52
2022/09/22 03:22:05;;;;;;;4.17;3.87;;;;;;;12.54;85.46;99482.38;5111697;28;20190;-52
2022/09/22 03:24:34;;;;;;;4.00;3.80;;;;;;;12.55;85.68;99486.69;5111915;28;20205;-52
2022/09/22 03:27:01;;;;;;;4.60;4.30;;;;;;;12.52;85.93;99481.63;5111975;28;20202;-52
2022/09/22 03:29:27;;;;;;;4.77;3.90;;;;;;;12.54;86.19;99490.19;5111646;28;20211;-52
2022/09/22 03:31:54;;;;;;;4.43;4.13;;;;;;;12.51;92.32;99485.97;5112052;28;20204;-53
2022/09/22 03:34:21;;;;;;;4.37;4.07;;;;;;;12.48;87.63;99488.69;5111191;28;20230;-51
2022/09/22 03:36:48;;;;;;;4.13;3.90;;;;;;;12.45;87.74;99487.94;5111831;28;20658;-52
2022/09/22 03:39:15;;;;;;;4.87;4.57;;;;;;;12.45;87.66;99485.31;5111681;28;20186;-52
2022/09/22 03:41:44;;;;;;;4.43;4.13;;;;;;;12.47;87.33;99491.34;5110988;28;20746;-56
2022/09/22 03:44:11;;;;;;;4.70;4.40;;;;;;;12.41;87.78;99491.56;5110183;28;20194;-54
2022/09/22 03:46:37;;;;;;;5.37;4.70;;;;;;;12.41;88.00;99495.03;5110258;28;20186;-54
2022/09/22 03:49:04;;;;;;;4.90;4.50;;;;;;;12.22;88.04;99463.59;5108077;28;20222;-54
2022/09/22 03:51:33;;;;;;;4.67;4.37;;;;;;;12.46;87.79;99497.44;5112577;28;20191;-55
2022/09/22 03:54:00;;;;;;;4.63;4.33;;;;;;;12.36;88.48;99503.00;5109713;28;20195;-54
2022/09/22 03:56:26;;;;;;;4.80;4.50;;;;;;;12.33;88.63;99517.84;5107206;28;20204;-54
2022/09/22 03:58:55;;;;;;;5.03;4.63;;;;;;;12.38;88.85;99515.94;5109567;28;20227;-54
2022/09/22 04:01:22;;;;;;;4.90;4.60;;;;;;;12.39;88.64;99522.00;5109681;28;20632;-54
2022/09/22 04:03:49;;;;;;;5.80;5.10;;;;;;;12.39;88.59;99519.41;5111021;28;20205;-54
2022/09/22 04:06:16;;;;;;;5.17;4.87;;;;;;;12.35;89.13;99521.25;5111197;28;20194;-55
2022/09/22 04:08:43;;;;;;;5.00;4.70;;;;;;;12.38;88.98;99525.50;5111666;27;20309;-56
2022/09/22 04:11:09;;;;;;;5.37;4.97;;;;;;;12.36;89.13;99526.41;5110093;28;20210;-56
2022/09/22 04:13:36;;;;;;;5.20;4.80;;;;;;;12.36;88.91;99521.22;5112186;28;20198;-55
2022/09/22 04:16:05;;;;;;;4.97;4.67;;;;;;;12.37;89.41;99522.06;5111990;28;20202;-55
2022/09/22 04:18:32;;;;;;;4.77;4.47;;;;;;;12.35;89.17;99522.13;5112146;28;20558;-55
2022/09/22 04:21:00;;;;;;;5.20;4.80;;;;;;;12.38;89.42;99526.38;5111917;28;20194;-55
2022/09/22 04:23:27;;;;;;;5.10;4.70;;;;;;;12.41;89.46;99525.41;5111581;28;20643;-56
2022/09/22 04:25:54;;;;;;;5.17;4.77;;;;;;;12.43;89.33;99515.75;5111606;28;20594;-54
2022/09/22 04:28:21;;;;;;;5.60;5.20;;;;;;;12.39;89.23;99522.84;5111203;28;20222;-56
2022/09/22 04:30:48;;;;;;;5.43;4.80;;;;;;;12.38;89.44;99525.50;5108600;28;20647;-55
2022/09/22 04:33:17;;;;;;;5.20;4.90;;;;;;;12.44;89.32;99520.91;5111281;28;20199;-53
2022/09/22 04:35:44;;;;;;;5.87;5.40;;;;;;;12.48;88.76;99513.84;5111449;28;20209;-52
2022/09/22 04:38:12;;;;;;;5.30;4.90;;;;;;;12.53;88.68;99514.53;5111455;28;20289;-52
2022/09/22 04:40:39;;;;;;;5.93;4.83;;;;;;;12.50;88.37;99517.25;5111694;28;20230;-53
2022/09/22 04:43:06;;;;;;;4.93;4.63;;;;;;;12.51;88.41;99522.41;5111422;28;20202;-53
2022/09/22 04:45:33;;;;;;;4.87;4.57;;;;;;;12.56;87.86;99519.63;5111402;28;20194;-53
2022/09/22 04:48:00;;;;;;;4.83;4.47;;;;;;;12.62;87.42;99525.47;5111424;28;20309;-53
2022/09/22 04:50:28;;;;;;;5.23;4.83;;;;;;;12.62;86.86;99512.47;5110817;28;20194;-53
2022/09/22 04:52:56;;;;;;;5.37;4.87;;;;;;;12.73;86.18;99528.53;5111476;28;20670;-53
2022/09/22 04:55:24;;;;;;;5.90;5.40;;;;;;;12.80;85.49;99523.06;5110900;28;20217;-53
2022/09/22 04:57:53;;;;;;;5.07;4.70;;;;;;;12.86;84.30;99528.94;5110478;28;20191;-53
2022/09/22 05:00:22;;;;;;;5.23;4.83;;;;;;;12.96;83.51;99527.66;5109716;28;20201;-52
2022/09/22 05:02:49;;;;;;;5.07;4.67;;;;;;;13.05;82.66;99523.84;5111180;28;20191;-52
2022/09/22 05:05:17;;;;;;;4.83;4.40;;;;;;;13.12;81.83;99521.84;5110771;28;20203;-53
2022/09/22 05:07:47;;;;;;;5.40;4.90;;;;;;;13.24;80.96;99529.22;5110837;28;20201;-53
2022/09/22 05:10:16;;;;;;;5.03;4.60;;;;;;;13.34;80.32;99531.41;5110807;28;20203;-53
2022/09/22 05:12:44;;;;;;;4.53;4.13;;;;;;;13.54;78.75;99517.59;5110840;28;20291;-52
2022/09/22 05:15:13;;;;;;;4.67;4.33;;;;;;;14.55;74.10;99528.94;5096146;28;20427;-53
2022/09/22 05:17:46;;;;;;;4.83;4.03;;;;;;;16.32;65.82;99543.00;5089591;28;20622;-53
2022/09/22 05:20:13;;;;;;;4.37;4.07;;;;;;;17.87;58.19;99541.50;5089591;28;20332;-52
2022/09/22 05:22:40;;;;;;;4.43;3.93;;;;;;;19.04;53.55;99542.28;5103607;28;20309;-53
2022/09/22 05:25:11;;;;;;;4.10;3.80;;;;;;;20.36;49.26;99548.53;5109974;27;20700;-56
2022/09/22 05:27:42;;;;;;;3.80;3.60;;;;;;;20.76;47.51;99539.56;5108355;28;20221;-56
2022/09/22 05:30:10;;;;;;;4.57;3.67;;;;;;;20.92;46.13;99537.50;5109560;28;20222;-56
2022/09/22 05:32:37;;;;;;;5.30;3.80;;;;;;;21.27;45.52;99537.66;5110277;28;20206;-54
2022/09/22 05:35:04;;;;;;;3.70;3.40;;;;;;;21.73;43.87;99519.25;5110056;28;20236;-54
2022/09/22 05:37:31;;;;;;;3.80;3.63;;;;;;;22.68;42.04;99534.03;5110136;28;20199;-53
2022/09/22 05:39:58;;;;;;;3.00;2.90;;;;;;;23.39;40.38;99531.91;5110262;28;20201;-53
2022/09/22 05:42:26;;;;;;;4.35;3.70;;;;;;;23.98;38.88;99536.75;5110279;28;20199;-53
2022/09/22 05:44:53;;;;;;;3.70;3.40;;;;;;;24.13;38.28;99546.09;5110576;28;20558;-54
2022/09/22 05:47:20;;;;;;;4.68;3.25;;;;;;;25.39;36.50;99542.22;5109876;28;20202;-53
2022/09/22 05:49:47;;;;;;;3.60;3.30;;;;;;;26.42;34.69;99543.31;5108427;28;20305;-54
2022/09/22 05:52:14;;;;;;;4.47;3.50;;;;;;;26.84;33.39;99545.56;5108863;28;20596;-56
2022/09/22 05:54:41;;;;;;;3.35;3.13;;;;;;;26.69;33.30;99559.34;5105717;28;20201;-56
2022/09/22 05:57:08;;;;;;;4.05;3.80;;;;;;;26.94;33.21;99549.91;5105569;27;20198;-55
2022/09/22 05:59:36;;;;;;;3.40;3.20;;;;;;;27.12;32.85;99560.59;5110317;28;20217;-56
2022/09/22 06:02:06;;;;;;;3.10;2.90;;;;;;;26.90;32.95;99560.97;5109561;28;20195;-55
2022/09/22 06:04:33;;;;;;;3.60;3.22;;;;;;;27.92;31.92;99561.63;5109202;28;20981;-56
2022/09/22 06:07:00;;;;;;;3.97;3.30;;;;;;;28.39;30.66;99562.19;5109038;28;20212;-56
2022/09/22 06:09:27;;;;;;;3.03;2.85;;;;;;;27.94;31.02;99548.97;5108152;28;20225;-57
2022/09/22 06:11:54;;;;;;;3.50;3.30;;;;;;;27.99;30.60;99562.72;5108751;28;20666;-58
2022/09/22 06:14:21;;;;;;;3.83;3.60;;;;;;;27.71;31.03;99553.94;5107888;28;20202;-57
2022/09/22 06:16:49;;;;;;;8.43;3.40;;;;;;;28.24;30.65;99564.56;5108733;28;20604;-58
2022/09/22 06:19:16;;;;;;;3.20;3.00;;;;;;;27.86;30.65;99556.91;5107881;28;20460;-56
2022/09/22 06:21:44;;;;;;;4.50;2.92;;;;;;;27.86;30.59;99560.41;5109640;28;20287;-56
2022/09/22 06:24:11;;;;;;;8.70;4.07;;;;;;;28.44;30.44;99560.72;5109740;28;20634;-56
2022/09/22 06:26:38;;;;;;;3.67;3.28;;;;;;;28.20;30.24;99565.06;5109891;28;20579;-56
2022/09/22 06:29:05;;;;;;;3.53;3.33;;;;;;;28.92;29.85;99570.03;5109414;28;20228;-57
2022/09/22 06:31:32;;;;;;;8.02;3.17;;;;;;;29.49;28.64;99560.41;5109593;28;20198;-56
2022/09/22 06:34:00;;;;;;;3.78;3.28;;;;;;;29.64;28.69;99562.44;5109868;28;20321;-57
2022/09/22 06:36:30;;;;;;;3.83;3.53;;;;;;;29.54;28.47;99568.78;5109543;28;20290;-56
2022/09/22 06:38:58;;;;;;;3.47;3.28;;;;;;;28.75;29.67;99571.78;5109566;28;20656;-57
2022/09/22 06:41:25;;;;;;;3.65;3.35;;;;;;;28.66;29.66;99567.38;5109585;28;20246;-57
2022/09/22 06:43:54;;;;;;;3.83;3.45;;;;;;;28.62;29.52;99570.53;5109702;28;20186;-57
2022/09/22 06:46:23;;;;;;;4.03;3.17;;;;;;;29.01;29.23;99571.75;5109565;28;20259;-58
2022/09/22 06:48:50;;;;;;;5.20;3.28;;;;;;;28.85;29.61;99572.53;5109639;28;20309;-57
2022/09/22 06:51:19;;;;;;;3.50;3.30;;;;;;;28.77;29.77;99580.47;5109335;28;20666;-58
2022/09/22 06:53:46;;;;;;;5.32;4.50;;;;;;;28.77;29.45;99575.13;5109685;28;20718;-57
2022/09/22 06:56:13;;;;;;;3.28;3.08;;;;;;;29.03;29.46;99580.44;5109413;28;20566;-56
2022/09/22 06:58:43;;;;;;;4.05;3.35;;;;;;;29.90;28.30;99569.34;5109114;28;20659;-57
2022/09/22 07:01:10;;;;;;;3.03;2.90;;;;;;;29.57;28.33;99578.34;5107452;28;20225;-53
2022/09/22 07:03:39;;;;;;;5.90;3.10;;;;;;;30.35;27.76;99577.91;5107267;28;20186;-53
2022/09/22 07:06:07;;;;;;;6.15;3.10;;;;;;;31.05;26.72;99577.06;5108702;28;20210;-53
2022/09/22 07:08:37;;;;;;;2.92;2.83;;;;;;;31.11;26.77;99569.38;5107458;28;20206;-53
2022/09/22 07:11:06;;;;;;;2.88;2.67;;;;;;;31.20;26.34;99579.88;5107785;28;20219;-53
2022/09/22 07:13:37;;;;;;;2.67;2.55;;;;;;;31.87;25.82;99580.19;5108828;28;20281;-53
2022/09/22 07:16:07;;;;;;;3.15;2.70;;;;;;;30.30;27.24;99543.56;5109248;28;20209;-54
2022/09/22 07:18:34;;;;;;;3.28;3.08;;;;;;;29.78;27.67;99569.84;5108902;28;20194;-52
2022/09/22 07:21:05;;;;;;;3.28;3.08;;;;;;;29.64;27.93;99568.63;5109570;28;20286;-53
2022/09/22 07:23:34;;;;;;;4.68;2.75;;;;;;;31.28;26.69;99570.94;5112991;28;20264;-53
2022/09/22 07:26:03;;;;;;;3.30;2.90;;;;;;;32.58;24.85;99578.91;5113049;28;20313;-54
2022/09/22 07:28:31;;;;;;;2.38;2.10;;;;;;;31.91;25.74;99561.88;5111699;28;20622;-53
2022/09/22 07:31:04;;;;;;;2.70;2.60;;;;;;;31.87;25.72;99576.66;5108784;28;20589;-55
2022/09/22 07:33:31;;;;;;;2.47;2.38;;;;;;;33.28;24.53;99573.09;5111494;28;20226;-54
2022/09/22 07:36:04;;;;;;;3.08;2.35;;;;;;;34.38;23.18;99572.78;5111471;28;20209;-54
2022/09/22 07:38:32;;;;;;;5.25;2.75;;;;;;;34.03;23.50;99571.84;5110977;28;20201;-53
2022/09/22 07:41:00;;;;;;;2.20;2.10;;;;;;;33.32;23.37;99554.72;5111528;28;20251;-54
2022/09/22 07:43:28;;;;;;;2.40;2.30;;;;;;;31.04;25.61;99563.81;5108489;28;20201;-52
2022/09/22 07:45:56;;;;;;;4.45;2.40;;;;;;;30.98;26.06;99575.25;5110451;28;20202;-54
2022/09/22 07:48:40;;;;;;;2.75;2.50;;;;;;;30.54;26.10;99566.84;5109626;28;20228;-54
2022/09/22 07:51:09;;;;;;;3.15;2.80;;;;;;;28.96;27.83;99570.56;5109935;27;20595;-53
2022/09/22 07:53:38;;;;;;;2.80;2.70;;;;;;;27.63;30.05;99565.38;5109279;28;20213;-53
2022/09/22 07:56:07;;;;;;;3.25;2.70;;;;;;;26.25;32.06;99558.19;5110093;28;20500;-57
2022/09/22 07:58:35;;;;;;;2.83;2.60;;;;;;;24.67;34.28;99564.44;5111136;28;20239;-57
2022/09/22 08:01:06;;;;;;;2.67;2.58;;;;;;;23.37;36.54;99553.22;5112360;28;20201;-57
2022/09/22 08:03:36;;;;;;;3.00;2.90;;;;;;;22.69;37.80;99548.06;5112271;28;20222;-57
2022/09/22 08:06:08;;;;;;;2.80;2.70;;;;;;;22.28;38.55;99552.13;5112206;28;20202;-56
2022/09/22 08:08:37;;;;;;;3.20;3.00;;;;;;;22.21;38.86;99548.28;5111987;28;20255;-56
2022/09/22 08:11:06;;;;;;;2.97;2.33;;;;;;;21.53;40.30;99546.31;5112316;28;20199;-52
2022/09/22 08:13:35;;;;;;;2.90;2.67;;;;;;;21.32;40.57;99526.75;5111992;28;20202;-52
2022/09/22 08:16:03;;;;;;;2.65;2.50;;;;;;;21.32;41.22;99545.25;5111214;28;20465;-55
2022/09/22 08:18:31;;;;;;;2.78;2.67;;;;;;;20.96;41.75;99523.16;5111514;28;20683;-55
2022/09/22 08:20:59;;;;;;;5.30;4.80;;;;;;;20.82;42.73;99539.09;5111423;28;20204;-54
2022/09/22 08:23:26;;;;;;;8.68;3.92;;;;;;;20.84;42.71;99537.22;5111892;28;20290;-54
2022/09/22 08:25:53;;;;;;;3.30;3.10;;;;;;;20.81;42.65;99533.94;5111955;28;20195;-55
2022/09/22 08:28:20;;;;;;;4.25;2.63;;;;;;;20.30;43.12;99539.22;5110797;28;20199;-55
2022/09/22 08:30:49;;;;;;;6.55;3.90;;;;;;;20.30;43.87;99534.78;5110824;28;20225;-54
2022/09/22 08:33:16;;;;;;;3.92;3.70;;;;;;;20.24;44.32;99535.19;5107964;28;20199;-54
2022/09/22 08:35:53;;;;;;;7.65;4.40;;;;;;;20.19;44.33;99510.97;5111305;28;20205;-55
2022/09/22 08:38:22;;;;;;;2.90;2.70;;;;;;;20.08;43.86;99531.09;5109441;28;20605;-55
2022/09/22 08:41:14;;;;;;;14.07;8.13;;;;;;;20.11;44.15;99525.59;5107891;28;20255;-55
2022/09/22 08:43:47;;;;;;;3.72;3.20;;;;;;;20.20;43.84;99522.34;5110748;28;20203;-56
2022/09/22 08:46:16;;;;;;;3.05;2.85;;;;;;;20.15;44.17;99520.00;5110526;28;20190;-54
2022/09/22 08:51:53;;;;;;;2.95;2.85;;;;;;;20.29;44.35;99517.28;5109671;28;20239;-55
2022/09/22 08:54:23;;;;;;;4.03;3.58;;;;;;;20.31;44.15;99493.47;5110109;27;20635;-55
2022/09/22 08:56:59;;;;;;;4.68;4.28;;;;;;;20.63;44.00;99502.63;5110717;28;20191;-55
2022/09/22 08:59:32;;;;;;;6.00;4.28;;;;;;;20.77;42.79;99512.19;5098739;28;20199;-54
2022/09/22 09:02:32;;;;;;;4.15;3.25;;;;;;;20.57;42.95;99496.94;5108714;28;20212;-54
2022/09/22 09:05:38;;;;;;;6.03;3.00;;;;;;;20.30;43.73;99516.34;5110698;28;20278;-55
2022/09/22 09:08:18;;;;;;;3.58;3.28;;;;;;;20.56;43.81;99509.28;5079434;28;20209;-56
2022/09/22 09:10:54;;;;;;;2.92;2.83;;;;;;;20.67;43.05;99517.28;5110934;28;20245;-55
2022/09/22 09:13:42;;;;;;;3.50;2.20;;;;;;;20.85;41.84;99515.16;5110934;28;20282;-54
2022/09/22 09:16:24;;;;;;;2.40;2.30;;;;;;;20.98;41.56;99509.84;5107472;27;20353;-55
2022/09/22 09:18:57;;;;;;;2.40;2.30;;;;;;;21.14;41.43;99501.66;5110435;28;20785;-55
2022/09/22 09:21:25;;;;;;;3.65;2.50;;;;;;;21.08;41.71;99497.66;5110121;27;20238;-55
2022/09/22 09:23:57;;;;;;;2.75;2.33;;;;;;;20.83;41.89;99495.09;5110259;28;20301;-54
2022/09/22 09:26:24;;;;;;;4.32;2.50;;;;;;;20.68;42.14;99491.75;5110093;28;20221;-56
2022/09/22 09:28:56;;;;;;;3.20;3.00;;;;;;;20.77;42.24;99493.72;5110393;28;20610;-54
2022/09/22 09:31:30;;;;;;;15.40;2.85;;;;;;;20.96;41.93;99494.13;5109376;28;20238;-55
2022/09/22 09:34:02;;;;;;;2.40;2.30;;;;;;;21.14;40.83;99494.56;5098251;28;20224;-53
2022/09/22 09:36:32;;;;;;;2.35;1.90;;;;;;;21.06;39.64;99477.63;5107218;28;20205;-54
2022/09/22 09:39:09;;;;;;;3.08;2.13;;;;;;;21.14;39.85;99494.56;5109885;28;20198;-62
2022/09/22 09:41:36;;;;;;;2.72;2.30;;;;;;;20.91;39.98;99490.09;5110289;28;20202;-63
2022/09/22 09:44:05;;;;;;;2.28;2.17;;;;;;;20.72;39.42;99490.59;5110254;28;20198;-62
2022/09/22 09:46:45;;;;;;;2.58;2.10;;;;;;;20.64;39.96;99480.59;5110055;28;20202;-62
2022/09/22 09:49:15;;;;;;;2.25;2.15;;;;;;;20.70;39.89;99474.03;5110165;28;20194;-63
2022/09/22 09:51:45;;;;;;;1.88;1.77;;;;;;;20.97;39.39;99477.34;5110539;28;20569;-64
2022/09/22 09:54:14;;;;;;;3.60;3.40;;;;;;;21.06;39.04;99477.63;5110311;28;20226;-53
2022/09/22 09:57:03;;;;;;;3.22;2.50;;;;;;;21.17;38.38;99472.41;5110170;28;20722;-53
2022/09/22 10:02:15;;;;;;;2.50;2.30;;;;;;;21.61;38.42;99464.69;5110197;28;20196;-62
2022/09/22 10:04:50;;;;;;;1.85;1.75;;;;;;;21.62;37.60;99471.69;5110026;28;20198;-65
2022/09/22 10:07:20;;;;;;;1.88;1.77;;;;;;;21.77;37.09;99471.50;5109779;28;20232;-63
2022/09/22 10:09:48;;;;;;;2.10;1.90;;;;;;;21.41;36.88;99469.78;5109914;28;20283;-63
2022/09/22 10:12:27;;;;;;;1.77;1.67;;;;;;;21.35;37.45;99469.28;5109861;28;20413;-64
2022/09/22 10:14:56;;;;;;;1.85;1.75;;;;;;;21.60;37.46;99468.31;5110228;28;20218;-54
2022/09/22 10:17:28;;;;;;;2.78;2.58;;;;;;;21.72;37.06;99463.91;5109999;28;20198;-54
2022/09/22 10:20:16;;;;;;;4.70;1.88;;;;;;;21.74;36.75;99467.28;5110353;28;20194;-54
2022/09/22 10:22:43;;;;;;;3.97;1.95;;;;;;;;;;5110516;28;20201;-53
2022/09/22 10:25:21;;;;;;;2.28;1.80;;;;;;;21.54;36.86;99455.56;5110473;28;20662;-54
2022/09/22 10:28:00;;;;;;;1.98;1.70;;;;;;;21.37;36.43;99463.88;5110581;28;20588;-54
2022/09/22 10:30:36;;;;;;;1.30;1.30;;;;;;;21.44;36.16;99465.13;5108870;28;20672;-53
2022/09/22 10:33:12;;;;;;;1.90;1.80;;;;;;;21.57;35.52;99454.47;5108329;28;20205;-53
2022/09/22 10:35:43;;;;;;;2.13;1.83;;;;;;;21.67;35.02;99466.06;5106147;28;20202;-53
2022/09/22 10:38:20;;;;;;;1.40;1.30;;;;;;;21.75;34.81;99461.03;5108431;28;20198;-62
2022/09/22 10:40:53;;;;;;;2.40;2.30;;;;;;;21.69;35.27;99454.41;5109485;28;20191;-63
2022/09/22 10:43:35;;;;;;;1.95;1.85;;;;;;;21.66;35.49;99452.00;5107301;28;20205;-63
2022/09/22 10:46:38;;;;;;;3.72;1.88;;;;;;;21.72;35.42;99445.41;5108460;28;20190;-54
2022/09/22 10:49:12;;;;;;;1.50;1.50;;;;;;;21.56;35.61;99439.56;5087396;28;20277;-53
2022/09/22 10:52:04;;;;;;;1.85;1.75;;;;;;;21.36;36.05;99444.56;5109222;28;20218;-54
2022/09/22 10:54:50;;;;;;;1.77;1.67;;;;;;;21.58;36.13;99445.59;5109059;28;20325;-53
2022/09/22 10:57:30;;;;;;;1.27;1.27;;;;;;;21.62;35.19;99439.97;5108836;28;20273;-53
2022/09/22 11:00:09;;;;;;;2.50;2.33;;;;;;;21.51;35.81;99441.75;5113251;28;20195;-53
2022/09/22 11:03:03;;;;;;;2.22;2.13;;;;;;;21.66;35.55;99437.97;5110961;28;20597;-62
2022/09/22 11:14:24;;;;;;;1.80;1.70;;;;;;;21.69;34.28;99427.97;5114074;28;20282;-53
2022/09/22 11:17:14;;;;;;;1.85;1.58;;;;;;;21.49;34.90;99428.66;5113988;28;20198;-53
2022/09/22 11:20:08;;;;;;;2.13;2.03;;;;;;;21.50;34.66;99421.56;5113756;28;20203;-53
2022/09/22 11:23:00;;;;;;;2.50;1.83;;;;;;;21.57;34.58;99434.19;5113447;28;20685;-53
2022/09/22 11:25:46;;;;;;;2.42;2.10;;;;;;;21.85;34.53;99427.66;5111334;28;20443;-53
2022/09/22 11:28:31;;;;;;;1.88;1.77;;;;;;;21.90;34.62;99427.28;5112202;28;20201;-52
2022/09/22 11:30:59;;;;;;;1.98;1.70;;;;;;;21.97;34.15;99433.81;5110098;28;20229;-54
2022/09/22 11:33:51;;;;;;;3.47;1.90;;;;;;;21.80;34.68;99428.97;5112799;28;20892;-53
2022/09/22 11:36:33;;;;;;;1.30;1.30;;;;;;;21.45;34.85;99429.81;5109578;28;20259;-56
2022/09/22 11:39:10;;;;;;;1.85;1.75;;;;;;;21.28;35.30;99424.97;5109844;28;20206;-53
2022/09/22 11:41:42;;;;;;;1.20;1.20;;;;;;;21.08;35.48;99409.75;5112280;28;20193;-53
2022/09/22 11:44:35;;;;;;;1.50;1.50;;;;;;;21.09;35.82;99419.34;5093160;28;20663;-54
2022/09/22 11:47:34;;;;;;;1.38;1.30;;;;;;;21.19;35.69;99413.31;5093084;28;20221;-53
2022/09/22 11:50:23;;;;;;;3.03;1.38;;;;;;;21.26;35.06;99414.53;5092590;28;20187;-52
2022/09/22 11:53:12;;;;;;;1.25;1.25;;;;;;;21.29;34.97;99411.66;5092756;28;20201;-53
2022/09/22 11:55:45;;;;;;;1.17;1.10;;;;;;;21.31;34.95;99406.28;5090831;28;20203;-62
2022/09/22 11:58:18;;;;;;;4.50;1.55;;;;;;;21.30;34.98;99412.50;5092829;28;20192;-62
2022/09/22 12:00:52;;;;;;;1.30;1.30;;;;;;;21.29;34.91;99410.81;5092890;28;20191;-62
2022/09/22 12:03:24;;;;;;;1.42;1.42;;;;;;;21.26;35.19;99406.59;5092735;28;20752;-61
2022/09/22 12:05:54;;;;;;;2.13;1.40;;;;;;;21.06;35.03;99417.75;5092328;28;20731;-62
2022/09/22 12:08:25;;;;;;;1.42;1.30;;;;;;;21.01;35.54;99410.16;5092293;28;20205;-61
2022/09/22 12:10:54;;;;;;;2.47;1.60;;;;;;;20.86;35.71;99384.09;5092385;28;20225;-62